sensor_id;sensor_type;location;lat;lon;timestamp;pressure;altitude;pressure_sealevel;temperature;humidity
73085;BME280;62974;49.460;10.892;2023-05-20T00:00:56;97997.53;;;13.74;77.86
73085;BME280;62974;49.460;10.892;2023-05-20T00:03:24;98009.47;;;13.46;83.52
73085;BME280;62974;49.460;10.892;2023-05-20T00:05:52;98000.47;;;13.65;78.19
73085;BME280;62974;49.460;10.892;2023-05-20T00:08:19;97999.66;;;13.65;79.52
73085;BME280;62974;49.460;10.892;2023-05-20T00:10:48;97996.13;;;13.64;80.01
73085;BME280;62974;49.460;10.892;2023-05-20T00:13:16;98000.00;;;13.31;84.49
73085;BME280;62974;49.460;10.892;2023-05-20T00:15:44;97998.94;;;13.45;83.76
73085;BME280;62974;49.460;10.892;2023-05-20T00:18:11;97992.66;;;13.51;82.96
73085;BME280;62974;49.460;10.892;2023-05-20T00:20:39;98000.63;;;13.33;85.07
73085;BME280;62974;49.460;10.892;2023-05-20T00:23:07;97994.31;;;13.52;82.92
73085;BME280;62974;49.460;10.892;2023-05-20T00:25:34;97994.84;;;13.23;86.11
73085;BME280;62974;49.460;10.892;2023-05-20T00:28:04;97986.69;;;13.42;84.28
73085;BME280;62974;49.460;10.892;2023-05-20T00:30:32;97991.75;;;13.19;86.78
73085;BME280;62974;49.460;10.892;2023-05-20T00:32:59;97984.69;;;13.25;86.46
73085;BME280;62974;49.460;10.892;2023-05-20T00:35:27;97996.75;;;13.15;87.42
73085;BME280;62974;49.460;10.892;2023-05-20T00:37:55;97985.28;;;13.27;85.56
73085;BME280;62974;49.460;10.892;2023-05-20T00:40:22;97980.22;;;13.50;83.05
73085;BME280;62974;49.460;10.892;2023-05-20T00:42:51;97983.38;;;13.34;85.70
73085;BME280;62974;49.460;10.892;2023-05-20T00:45:20;97992.53;;;13.26;87.63
73085;BME280;62974;49.460;10.892;2023-05-20T00:47:47;97978.09;;;13.65;80.56
73085;BME280;62974;49.460;10.892;2023-05-20T00:50:15;97984.22;;;13.41;83.02
73085;BME280;62974;49.460;10.892;2023-05-20T00:52:43;97986.44;;;13.57;83.61
73085;BME280;62974;49.460;10.892;2023-05-20T00:55:13;97990.78;;;13.51;84.58
73085;BME280;62974;49.460;10.892;2023-05-20T00:57:41;97975.88;;;13.49;81.64
73085;BME280;62974;49.460;10.892;2023-05-20T01:00:09;97984.16;;;13.47;83.95
73085;BME280;62974;49.460;10.892;2023-05-20T01:02:40;97992.13;;;13.29;87.69
73085;BME280;62974;49.460;10.892;2023-05-20T01:05:08;97975.28;;;13.40;85.63
73085;BME280;62974;49.460;10.892;2023-05-20T01:07:36;97979.84;;;13.40;85.99
73085;BME280;62974;49.460;10.892;2023-05-20T01:10:05;97983.38;;;13.34;86.73
73085;BME280;62974;49.460;10.892;2023-05-20T01:12:36;97970.09;;;13.39;84.42
73085;BME280;62974;49.460;10.892;2023-05-20T01:15:07;97985.13;;;13.15;89.93
73085;BME280;62974;49.460;10.892;2023-05-20T01:17:40;97973.47;;;13.28;88.14
73085;BME280;62974;49.460;10.892;2023-05-20T01:20:11;97971.19;;;13.25;89.60
73085;BME280;62974;49.460;10.892;2023-05-20T01:22:47;97973.06;;;13.24;89.02
73085;BME280;62974;49.460;10.892;2023-05-20T01:25:15;97959.31;;;13.39;86.92
73085;BME280;62974;49.460;10.892;2023-05-20T01:27:42;97970.16;;;13.06;91.63
73085;BME280;62974;49.460;10.892;2023-05-20T01:30:10;97961.28;;;13.12;90.27
73085;BME280;62974;49.460;10.892;2023-05-20T01:32:42;97959.59;;;13.24;89.70
73085;BME280;62974;49.460;10.892;2023-05-20T01:35:13;97966.69;;;12.92;93.14
73085;BME280;62974;49.460;10.892;2023-05-20T01:37:42;97966.25;;;13.08;91.71
73085;BME280;62974;49.460;10.892;2023-05-20T01:40:14;97968.09;;;13.08;92.48
73085;BME280;62974;49.460;10.892;2023-05-20T01:42:42;97961.84;;;13.27;88.72
73085;BME280;62974;49.460;10.892;2023-05-20T01:45:11;97961.25;;;13.25;89.91
73085;BME280;62974;49.460;10.892;2023-05-20T01:47:38;97962.88;;;13.26;89.85
73085;BME280;62974;49.460;10.892;2023-05-20T01:50:07;97958.38;;;13.13;92.00
73085;BME280;62974;49.460;10.892;2023-05-20T01:52:35;97957.94;;;13.16;91.18
73085;BME280;62974;49.460;10.892;2023-05-20T01:55:02;97959.00;;;12.96;93.85
73085;BME280;62974;49.460;10.892;2023-05-20T01:57:31;97957.31;;;13.14;92.62
73085;BME280;62974;49.460;10.892;2023-05-20T01:59:59;97955.66;;;13.07;92.81
73085;BME280;62974;49.460;10.892;2023-05-20T02:02:27;97946.13;;;13.11;92.42
73085;BME280;62974;49.460;10.892;2023-05-20T02:04:55;97943.19;;;13.19;90.80
73085;BME280;62974;49.460;10.892;2023-05-20T02:07:22;97952.31;;;13.25;90.75
73085;BME280;62974;49.460;10.892;2023-05-20T02:09:50;97948.34;;;13.27;90.66
73085;BME280;62974;49.460;10.892;2023-05-20T02:12:17;97946.13;;;13.11;92.92
73085;BME280;62974;49.460;10.892;2023-05-20T02:14:46;97944.88;;;13.20;90.88
73085;BME280;62974;49.460;10.892;2023-05-20T02:17:16;97947.59;;;13.13;92.22
73085;BME280;62974;49.460;10.892;2023-05-20T02:19:44;97945.50;;;13.15;91.13
73085;BME280;62974;49.460;10.892;2023-05-20T02:22:11;97943.44;;;13.04;93.67
73085;BME280;62974;49.460;10.892;2023-05-20T02:24:39;97938.88;;;12.98;93.94
73085;BME280;62974;49.460;10.892;2023-05-20T02:27:08;97933.44;;;13.18;90.68
73085;BME280;62974;49.460;10.892;2023-05-20T02:29:36;97933.69;;;13.10;90.97
73085;BME280;62974;49.460;10.892;2023-05-20T02:32:05;97925.78;;;13.15;90.08
73085;BME280;62974;49.460;10.892;2023-05-20T02:34:34;97928.69;;;13.20;88.74
73085;BME280;62974;49.460;10.892;2023-05-20T02:37:01;97926.00;;;13.20;89.65
73085;BME280;62974;49.460;10.892;2023-05-20T02:39:29;97927.47;;;13.03;92.26
73085;BME280;62974;49.460;10.892;2023-05-20T02:41:56;97927.25;;;13.04;90.02
73085;BME280;62974;49.460;10.892;2023-05-20T02:44:24;97933.50;;;12.98;91.38
73085;BME280;62974;49.460;10.892;2023-05-20T02:46:52;97931.00;;;13.10;88.91
73085;BME280;62974;49.460;10.892;2023-05-20T02:49:21;97939.78;;;12.79;92.88
73085;BME280;62974;49.460;10.892;2023-05-20T02:51:49;97944.59;;;12.57;97.26
73085;BME280;62974;49.460;10.892;2023-05-20T02:54:17;97949.94;;;12.70;95.61
73085;BME280;62974;49.460;10.892;2023-05-20T02:56:44;97951.81;;;12.77;94.72
73085;BME280;62974;49.460;10.892;2023-05-20T02:59:12;97946.34;;;13.03;91.38
73085;BME280;62974;49.460;10.892;2023-05-20T03:01:39;97957.84;;;12.59;96.37
73085;BME280;62974;49.460;10.892;2023-05-20T03:04:07;97941.41;;;12.93;89.39
73085;BME280;62974;49.460;10.892;2023-05-20T03:06:36;97951.63;;;12.52;97.18
73085;BME280;62974;49.460;10.892;2023-05-20T03:09:04;97947.06;;;12.59;97.13
73085;BME280;62974;49.460;10.892;2023-05-20T03:11:31;97947.00;;;12.92;92.04
73085;BME280;62974;49.460;10.892;2023-05-20T03:13:59;97939.53;;;12.94;91.74
73085;BME280;62974;49.460;10.892;2023-05-20T03:16:27;97950.56;;;12.86;93.23
73085;BME280;62974;49.460;10.892;2023-05-20T03:18:54;97952.59;;;12.97;89.80
73085;BME280;62974;49.460;10.892;2023-05-20T03:21:22;97950.78;;;12.78;93.29
73085;BME280;62974;49.460;10.892;2023-05-20T03:23:51;97947.28;;;12.64;94.98
73085;BME280;62974;49.460;10.892;2023-05-20T03:26:19;97955.38;;;12.44;97.88
73085;BME280;62974;49.460;10.892;2023-05-20T03:28:48;97955.38;;;12.44;98.96
73085;BME280;62974;49.460;10.892;2023-05-20T03:31:16;97956.63;;;12.42;98.85
73085;BME280;62974;49.460;10.892;2023-05-20T03:33:44;97950.00;;;12.57;96.29
73085;BME280;62974;49.460;10.892;2023-05-20T03:36:12;97948.91;;;12.71;95.36
73085;BME280;62974;49.460;10.892;2023-05-20T03:38:40;97958.25;;;12.56;97.19
73085;BME280;62974;49.460;10.892;2023-05-20T03:41:09;97956.59;;;12.68;96.23
73085;BME280;62974;49.460;10.892;2023-05-20T03:43:36;97960.31;;;12.80;95.23
73085;BME280;62974;49.460;10.892;2023-05-20T03:46:04;97954.09;;;12.73;94.17
73085;BME280;62974;49.460;10.892;2023-05-20T03:48:31;97953.91;;;12.55;97.40
73085;BME280;62974;49.460;10.892;2023-05-20T03:50:59;97950.31;;;12.87;92.07
73085;BME280;62974;49.460;10.892;2023-05-20T03:53:27;97951.81;;;12.77;94.92
73085;BME280;62974;49.460;10.892;2023-05-20T03:55:54;97948.75;;;12.53;97.47
73085;BME280;62974;49.460;10.892;2023-05-20T03:58:23;97952.44;;;12.72;95.75
73085;BME280;62974;49.460;10.892;2023-05-20T04:00:51;97953.28;;;12.59;96.24
73085;BME280;62974;49.460;10.892;2023-05-20T04:03:19;97952.44;;;12.72;95.42
73085;BME280;62974;49.460;10.892;2023-05-20T04:05:48;97963.25;;;12.65;97.34
73085;BME280;62974;49.460;10.892;2023-05-20T04:08:15;97959.25;;;12.88;93.48
73085;BME280;62974;49.460;10.892;2023-05-20T04:10:44;97961.34;;;12.73;94.78
73085;BME280;62974;49.460;10.892;2023-05-20T04:13:12;97965.28;;;12.77;95.39
73085;BME280;62974;49.460;10.892;2023-05-20T04:15:41;97965.06;;;12.85;94.96
73085;BME280;62974;49.460;10.892;2023-05-20T04:18:10;97960.34;;;12.47;99.28
73085;BME280;62974;49.460;10.892;2023-05-20T04:20:39;97956.16;;;12.71;95.89
73085;BME280;62974;49.460;10.892;2023-05-20T04:23:07;97959.31;;;12.42;100.00
73085;BME280;62974;49.460;10.892;2023-05-20T04:25:35;97954.94;;;12.47;100.00
73085;BME280;62974;49.460;10.892;2023-05-20T04:28:03;97953.09;;;12.61;99.36
73085;BME280;62974;49.460;10.892;2023-05-20T04:30:30;97949.78;;;12.52;99.71
73085;BME280;62974;49.460;10.892;2023-05-20T04:33:00;97948.47;;;12.75;96.86
73085;BME280;62974;49.460;10.892;2023-05-20T04:35:29;97944.53;;;12.84;95.67
73085;BME280;62974;49.460;10.892;2023-05-20T04:37:57;97951.16;;;12.88;96.61
73085;BME280;62974;49.460;10.892;2023-05-20T04:40:24;97954.47;;;12.90;95.97
73085;BME280;62974;49.460;10.892;2023-05-20T04:42:52;97947.81;;;12.99;95.00
73085;BME280;62974;49.460;10.892;2023-05-20T04:45:21;97949.66;;;12.98;95.82
73085;BME280;62974;49.460;10.892;2023-05-20T04:47:49;97944.13;;;13.44;91.34
73085;BME280;62974;49.460;10.892;2023-05-20T04:50:20;97944.09;;;13.51;92.60
73085;BME280;62974;49.460;10.892;2023-05-20T04:52:47;97949.78;;;13.36;93.43
73085;BME280;62974;49.460;10.892;2023-05-20T04:55:15;97943.31;;;13.44;93.12
73085;BME280;62974;49.460;10.892;2023-05-20T04:57:43;97946.22;;;13.42;93.67
73085;BME280;62974;49.460;10.892;2023-05-20T05:00:12;97939.47;;;13.58;92.76
73085;BME280;62974;49.460;10.892;2023-05-20T05:02:40;97948.03;;;13.55;94.39
73085;BME280;62974;49.460;10.892;2023-05-20T05:05:08;97939.28;;;13.59;93.77
73085;BME280;62974;49.460;10.892;2023-05-20T05:07:37;97941.28;;;13.71;92.75
73085;BME280;62974;49.460;10.892;2023-05-20T05:10:05;97941.28;;;13.71;92.55
73085;BME280;62974;49.460;10.892;2023-05-20T05:12:33;97927.66;;;13.90;91.14
73085;BME280;62974;49.460;10.892;2023-05-20T05:15:00;97933.06;;;13.59;92.63
73085;BME280;62974;49.460;10.892;2023-05-20T05:17:28;97937.56;;;13.72;93.27
73085;BME280;62974;49.460;10.892;2023-05-20T05:19:55;97921.75;;;13.75;92.06
73085;BME280;62974;49.460;10.892;2023-05-20T05:22:23;97931.56;;;13.63;93.57
73085;BME280;62974;49.460;10.892;2023-05-20T05:24:52;97917.94;;;13.89;92.45
73085;BME280;62974;49.460;10.892;2023-05-20T05:27:21;97925.88;;;13.78;93.15
73085;BME280;62974;49.460;10.892;2023-05-20T05:29:49;97917.59;;;14.04;90.71
73085;BME280;62974;49.460;10.892;2023-05-20T05:32:16;97922.56;;;14.32;91.74
73085;BME280;62974;49.460;10.892;2023-05-20T05:34:44;97913.81;;;14.11;89.90
73085;BME280;62974;49.460;10.892;2023-05-20T05:37:12;97910.16;;;14.24;90.90
73085;BME280;62974;49.460;10.892;2023-05-20T05:39:39;97909.50;;;14.29;91.06
73085;BME280;62974;49.460;10.892;2023-05-20T05:42:08;97918.59;;;14.09;91.25
73085;BME280;62974;49.460;10.892;2023-05-20T05:44:35;97921.94;;;13.80;92.00
73085;BME280;62974;49.460;10.892;2023-05-20T05:47:04;97915.06;;;13.84;92.13
73085;BME280;62974;49.460;10.892;2023-05-20T05:49:32;97915.34;;;14.26;90.23
73085;BME280;62974;49.460;10.892;2023-05-20T05:52:00;97908.69;;;14.53;87.68
73085;BME280;62974;49.460;10.892;2023-05-20T05:54:27;97913.28;;;14.71;88.60
73085;BME280;62974;49.460;10.892;2023-05-20T05:56:55;97911.22;;;14.48;87.06
73085;BME280;62974;49.460;10.892;2023-05-20T05:59:24;97914.41;;;14.63;86.92
73085;BME280;62974;49.460;10.892;2023-05-20T06:01:52;97918.88;;;14.51;87.34
73085;BME280;62974;49.460;10.892;2023-05-20T06:04:19;97916.44;;;14.68;87.14
73085;BME280;62974;49.460;10.892;2023-05-20T06:06:47;97914.81;;;15.03;87.15
73085;BME280;62974;49.460;10.892;2023-05-20T06:09:15;97907.59;;;15.15;86.42
73085;BME280;62974;49.460;10.892;2023-05-20T06:11:42;97908.56;;;15.02;88.28
73085;BME280;62974;49.460;10.892;2023-05-20T06:14:10;97895.72;;;14.98;85.93
73085;BME280;62974;49.460;10.892;2023-05-20T06:16:39;97884.22;;;15.02;84.86
73085;BME280;62974;49.460;10.892;2023-05-20T06:19:06;97885.66;;;15.53;84.15
73085;BME280;62974;49.460;10.892;2023-05-20T06:21:35;97880.03;;;15.55;84.46
73085;BME280;62974;49.460;10.892;2023-05-20T06:24:02;97884.38;;;15.37;83.87
73085;BME280;62974;49.460;10.892;2023-05-20T06:26:30;97880.47;;;15.03;82.73
73085;BME280;62974;49.460;10.892;2023-05-20T06:28:58;97870.66;;;15.21;82.74
73085;BME280;62974;49.460;10.892;2023-05-20T06:31:25;97871.94;;;15.36;82.60
73085;BME280;62974;49.460;10.892;2023-05-20T06:33:56;97875.34;;;15.14;82.12
73085;BME280;62974;49.460;10.892;2023-05-20T06:36:26;97867.00;;;15.45;81.45
73085;BME280;62974;49.460;10.892;2023-05-20T06:38:54;97870.97;;;15.61;81.57
73085;BME280;62974;49.460;10.892;2023-05-20T06:41:21;97860.63;;;15.69;80.95
73085;BME280;62974;49.460;10.892;2023-05-20T06:43:50;97867.47;;;15.60;80.01
73085;BME280;62974;49.460;10.892;2023-05-20T06:46:18;97864.78;;;15.72;81.35
73085;BME280;62974;49.460;10.892;2023-05-20T06:48:46;97861.84;;;15.85;80.47
73085;BME280;62974;49.460;10.892;2023-05-20T06:51:15;97857.53;;;15.84;79.29
73085;BME280;62974;49.460;10.892;2023-05-20T06:53:43;97851.53;;;16.05;79.87
73085;BME280;62974;49.460;10.892;2023-05-20T06:56:10;97859.91;;;16.04;78.69
73085;BME280;62974;49.460;10.892;2023-05-20T06:58:38;97856.19;;;15.75;78.69
73085;BME280;62974;49.460;10.892;2023-05-20T07:01:06;97862.47;;;15.98;80.61
73085;BME280;62974;49.460;10.892;2023-05-20T07:03:33;97846.59;;;16.14;78.88
73085;BME280;62974;49.460;10.892;2023-05-20T07:06:01;97858.25;;;16.14;77.64
73085;BME280;62974;49.460;10.892;2023-05-20T07:08:30;97856.09;;;15.93;77.88
73085;BME280;62974;49.460;10.892;2023-05-20T07:10:58;97851.03;;;15.85;76.79
73085;BME280;62974;49.460;10.892;2023-05-20T07:13:25;97849.31;;;16.37;77.06
73085;BME280;62974;49.460;10.892;2023-05-20T07:15:53;97853.19;;;16.29;78.20
73085;BME280;62974;49.460;10.892;2023-05-20T07:18:20;97842.25;;;16.36;74.41
73085;BME280;62974;49.460;10.892;2023-05-20T07:20:48;97840.69;;;16.28;75.36
73085;BME280;62974;49.460;10.892;2023-05-20T07:23:16;97849.91;;;16.39;76.75
73085;BME280;62974;49.460;10.892;2023-05-20T07:25:44;97852.16;;;16.65;75.98
73085;BME280;62974;49.460;10.892;2023-05-20T07:28:14;97838.59;;;16.30;74.45
73085;BME280;62974;49.460;10.892;2023-05-20T07:30:42;97835.16;;;16.47;74.36
73085;BME280;62974;49.460;10.892;2023-05-20T07:33:11;97821.84;;;16.57;74.19
73085;BME280;62974;49.460;10.892;2023-05-20T07:35:39;97821.72;;;16.75;74.55
73085;BME280;62974;49.460;10.892;2023-05-20T07:38:06;97841.56;;;17.44;75.94
73085;BME280;62974;49.460;10.892;2023-05-20T07:40:34;97830.03;;;17.53;73.29
73085;BME280;62974;49.460;10.892;2023-05-20T07:43:05;97828.03;;;16.92;73.45
73085;BME280;62974;49.460;10.892;2023-05-20T07:45:33;97835.03;;;16.65;73.80
73085;BME280;62974;49.460;10.892;2023-05-20T07:48:02;97829.91;;;17.03;75.95
73085;BME280;62974;49.460;10.892;2023-05-20T07:50:30;97818.44;;;17.01;72.18
73085;BME280;62974;49.460;10.892;2023-05-20T07:52:58;97817.63;;;17.29;72.11
73085;BME280;62974;49.460;10.892;2023-05-20T07:55:25;97820.06;;;17.42;73.14
73085;BME280;62974;49.460;10.892;2023-05-20T07:57:53;97817.06;;;16.99;73.03
73085;BME280;62974;49.460;10.892;2023-05-20T08:00:22;97821.03;;;17.08;72.22
73085;BME280;62974;49.460;10.892;2023-05-20T08:02:50;97819.63;;;17.62;72.24
73085;BME280;62974;49.460;10.892;2023-05-20T08:05:18;97820.97;;;17.59;71.74
73085;BME280;62974;49.460;10.892;2023-05-20T08:07:45;97803.88;;;17.75;70.25
73085;BME280;62974;49.460;10.892;2023-05-20T08:10:15;97796.84;;;17.96;69.62
73085;BME280;62974;49.460;10.892;2023-05-20T08:12:42;97800.19;;;18.37;70.74
73085;BME280;62974;49.460;10.892;2023-05-20T08:15:10;97794.06;;;17.91;68.86
73085;BME280;62974;49.460;10.892;2023-05-20T08:17:39;97790.28;;;17.75;68.57
73085;BME280;62974;49.460;10.892;2023-05-20T08:20:08;97784.75;;;17.70;70.20
73085;BME280;62974;49.460;10.892;2023-05-20T08:22:36;97785.31;;;17.89;69.28
73085;BME280;62974;49.460;10.892;2023-05-20T08:25:07;97781.59;;;18.12;69.04
73085;BME280;62974;49.460;10.892;2023-05-20T08:27:36;97786.66;;;17.70;68.47
73085;BME280;62974;49.460;10.892;2023-05-20T08:30:05;97784.41;;;17.83;67.48
73085;BME280;62974;49.460;10.892;2023-05-20T08:32:33;97783.44;;;18.06;67.59
73085;BME280;62974;49.460;10.892;2023-05-20T08:35:02;97784.00;;;17.92;69.90
73085;BME280;62974;49.460;10.892;2023-05-20T08:37:30;97787.19;;;18.22;68.24
73085;BME280;62974;49.460;10.892;2023-05-20T08:39:58;97784.41;;;18.00;67.42
73085;BME280;62974;49.460;10.892;2023-05-20T08:42:26;97791.25;;;17.41;68.28
73085;BME280;62974;49.460;10.892;2023-05-20T08:44:54;97788.53;;;17.86;68.76
73085;BME280;62974;49.460;10.892;2023-05-20T08:47:23;97787.47;;;17.70;68.66
73085;BME280;62974;49.460;10.892;2023-05-20T08:49:50;97786.28;;;18.16;65.84
73085;BME280;62974;49.460;10.892;2023-05-20T08:52:20;97777.78;;;17.91;66.72
73085;BME280;62974;49.460;10.892;2023-05-20T08:54:49;97780.75;;;18.28;65.54
73085;BME280;62974;49.460;10.892;2023-05-20T08:57:16;97785.13;;;18.12;67.28
73085;BME280;62974;49.460;10.892;2023-05-20T08:59:45;97782.16;;;18.30;66.14
73085;BME280;62974;49.460;10.892;2023-05-20T09:02:13;97772.34;;;18.68;65.64
73085;BME280;62974;49.460;10.892;2023-05-20T09:04:41;97780.31;;;18.36;66.35
73085;BME280;62974;49.460;10.892;2023-05-20T09:07:09;97777.47;;;18.64;64.78
73085;BME280;62974;49.460;10.892;2023-05-20T09:09:38;97770.06;;;19.03;63.40
73085;BME280;62974;49.460;10.892;2023-05-20T09:12:06;97784.69;;;18.54;65.25
73085;BME280;62974;49.460;10.892;2023-05-20T09:14:34;97772.38;;;18.90;65.05
73085;BME280;62974;49.460;10.892;2023-05-20T09:17:03;97769.56;;;19.92;63.16
73085;BME280;62974;49.460;10.892;2023-05-20T09:19:32;97790.59;;;19.96;62.67
73085;BME280;62974;49.460;10.892;2023-05-20T09:22:02;97795.44;;;19.09;61.79
73085;BME280;62974;49.460;10.892;2023-05-20T09:24:30;97788.94;;;19.37;61.50
73085;BME280;62974;49.460;10.892;2023-05-20T09:26:59;97790.00;;;19.09;63.32
73085;BME280;62974;49.460;10.892;2023-05-20T09:29:26;97788.69;;;19.38;62.02
73085;BME280;62974;49.460;10.892;2023-05-20T09:31:54;97792.44;;;19.91;63.81
73085;BME280;62974;49.460;10.892;2023-05-20T09:34:22;97783.88;;;19.45;63.08
73085;BME280;62974;49.460;10.892;2023-05-20T09:36:50;97787.50;;;20.20;62.50
73085;BME280;62974;49.460;10.892;2023-05-20T09:39:22;97778.19;;;19.79;59.11
73085;BME280;62974;49.460;10.892;2023-05-20T09:41:54;97782.66;;;19.58;62.63
73085;BME280;62974;49.460;10.892;2023-05-20T09:44:24;97775.56;;;19.57;61.63
73085;BME280;62974;49.460;10.892;2023-05-20T09:46:55;97780.94;;;19.52;61.65
73085;BME280;62974;49.460;10.892;2023-05-20T09:49:24;97782.59;;;19.53;63.10
73085;BME280;62974;49.460;10.892;2023-05-20T09:51:53;97765.28;;;19.15;59.02
73085;BME280;62974;49.460;10.892;2023-05-20T09:54:22;97778.34;;;19.67;61.93
73085;BME280;62974;49.460;10.892;2023-05-20T09:56:52;97781.78;;;19.84;61.38
73085;BME280;62974;49.460;10.892;2023-05-20T09:59:20;97770.81;;;19.74;60.99
73085;BME280;62974;49.460;10.892;2023-05-20T10:01:49;97763.16;;;20.08;60.17
73085;BME280;62974;49.460;10.892;2023-05-20T10:04:18;97755.06;;;20.23;60.54
73085;BME280;62974;49.460;10.892;2023-05-20T10:07:17;97759.88;;;20.06;61.77
73085;BME280;62974;49.460;10.892;2023-05-20T10:10:15;97749.44;;;20.35;58.33
73085;BME280;62974;49.460;10.892;2023-05-20T10:12:52;97764.84;;;19.77;61.22
73085;BME280;62974;49.460;10.892;2023-05-20T10:15:27;97750.88;;;20.05;60.19
73085;BME280;62974;49.460;10.892;2023-05-20T10:18:05;97760.38;;;20.03;60.96
73085;BME280;62974;49.460;10.892;2023-05-20T10:20:45;97741.25;;;20.30;58.37
73085;BME280;62974;49.460;10.892;2023-05-20T10:23:20;97735.53;;;19.99;58.34
73085;BME280;62974;49.460;10.892;2023-05-20T10:25:52;97741.59;;;20.06;59.69
73085;BME280;62974;49.460;10.892;2023-05-20T10:28:30;97738.41;;;20.67;59.88
73085;BME280;62974;49.460;10.892;2023-05-20T10:30:59;97741.44;;;20.65;60.24
73085;BME280;62974;49.460;10.892;2023-05-20T10:33:28;97739.63;;;20.34;58.84
73085;BME280;62974;49.460;10.892;2023-05-20T10:35:57;97737.63;;;19.82;59.44
73085;BME280;62974;49.460;10.892;2023-05-20T10:38:25;97742.63;;;19.63;58.83
73085;BME280;62974;49.460;10.892;2023-05-20T10:40:53;97734.91;;;20.24;57.70
73085;BME280;62974;49.460;10.892;2023-05-20T10:43:25;97732.09;;;19.72;60.50
73085;BME280;62974;49.460;10.892;2023-05-20T10:45:54;97730.47;;;19.76;61.14
73085;BME280;62974;49.460;10.892;2023-05-20T10:48:23;97726.97;;;20.17;58.88
73085;BME280;62974;49.460;10.892;2023-05-20T10:50:55;97723.44;;;20.22;57.79
73085;BME280;62974;49.460;10.892;2023-05-20T10:53:24;97715.28;;;20.27;56.93
73085;BME280;62974;49.460;10.892;2023-05-20T10:56:00;97712.69;;;20.47;57.00
73085;BME280;62974;49.460;10.892;2023-05-20T10:58:35;97710.59;;;20.70;56.93
73085;BME280;62974;49.460;10.892;2023-05-20T11:01:03;97721.09;;;20.36;59.97
73085;BME280;62974;49.460;10.892;2023-05-20T11:03:32;97707.22;;;20.47;58.35
73085;BME280;62974;49.460;10.892;2023-05-20T11:06:10;97713.09;;;20.81;59.64
73085;BME280;62974;49.460;10.892;2023-05-20T11:08:38;97708.69;;;20.70;58.37
73085;BME280;62974;49.460;10.892;2023-05-20T11:11:06;97709.22;;;20.67;58.14
73085;BME280;62974;49.460;10.892;2023-05-20T11:13:34;97701.38;;;20.86;58.02
73085;BME280;62974;49.460;10.892;2023-05-20T11:16:02;97695.28;;;20.63;56.95
73085;BME280;62974;49.460;10.892;2023-05-20T11:18:30;97694.06;;;21.01;56.53
73085;BME280;62974;49.460;10.892;2023-05-20T11:20:58;97701.69;;;20.99;56.99
73085;BME280;62974;49.460;10.892;2023-05-20T11:23:27;97679.84;;;21.04;53.63
73085;BME280;62974;49.460;10.892;2023-05-20T11:25:56;97708.47;;;20.87;56.51
73085;BME280;62974;49.460;10.892;2023-05-20T11:28:24;97692.41;;;21.10;54.97
73085;BME280;62974;49.460;10.892;2023-05-20T11:30:52;97688.38;;;21.13;56.89
73085;BME280;62974;49.460;10.892;2023-05-20T11:33:20;97680.44;;;21.17;56.34
73085;BME280;62974;49.460;10.892;2023-05-20T11:35:49;97690.38;;;20.60;57.35
73085;BME280;62974;49.460;10.892;2023-05-20T11:38:18;97689.00;;;20.58;57.13
73085;BME280;62974;49.460;10.892;2023-05-20T11:40:51;97683.06;;;20.86;56.98
73085;BME280;62974;49.460;10.892;2023-05-20T11:43:20;97678.44;;;20.82;56.67
73085;BME280;62974;49.460;10.892;2023-05-20T11:45:52;97675.53;;;21.24;55.44
73085;BME280;62974;49.460;10.892;2023-05-20T11:48:20;97672.50;;;21.15;58.65
73085;BME280;62974;49.460;10.892;2023-05-20T11:50:53;97665.44;;;21.29;57.85
73085;BME280;62974;49.460;10.892;2023-05-20T11:53:24;97647.66;;;21.42;54.05
73085;BME280;62974;49.460;10.892;2023-05-20T11:55:54;97659.69;;;21.61;54.99
73085;BME280;62974;49.460;10.892;2023-05-20T11:58:24;97675.72;;;20.92;57.03
73085;BME280;62974;49.460;10.892;2023-05-20T12:00:52;97673.78;;;20.82;55.39
73085;BME280;62974;49.460;10.892;2023-05-20T12:03:34;97686.44;;;21.19;57.61
73085;BME280;62974;49.460;10.892;2023-05-20T12:06:03;97679.34;;;21.23;55.09
73085;BME280;62974;49.460;10.892;2023-05-20T12:08:30;97666.44;;;20.88;55.88
73085;BME280;62974;49.460;10.892;2023-05-20T12:10:59;97680.34;;;20.81;58.57
73085;BME280;62974;49.460;10.892;2023-05-20T12:13:27;97675.56;;;21.49;56.31
73085;BME280;62974;49.460;10.892;2023-05-20T12:15:55;97685.25;;;20.79;57.85
73085;BME280;62974;49.460;10.892;2023-05-20T12:18:22;97686.53;;;20.56;57.63
73085;BME280;62974;49.460;10.892;2023-05-20T12:20:50;97690.06;;;20.52;58.71
73085;BME280;62974;49.460;10.892;2023-05-20T12:23:18;97675.13;;;20.70;57.40
73085;BME280;62974;49.460;10.892;2023-05-20T12:25:46;97682.47;;;20.64;56.59
73085;BME280;62974;49.460;10.892;2023-05-20T12:28:17;97671.28;;;20.66;57.63
73085;BME280;62974;49.460;10.892;2023-05-20T12:30:45;97686.03;;;20.65;60.26
73085;BME280;62974;49.460;10.892;2023-05-20T12:33:13;97678.97;;;20.74;58.53
73085;BME280;62974;49.460;10.892;2023-05-20T12:35:41;97668.41;;;21.13;56.36
73085;BME280;62974;49.460;10.892;2023-05-20T12:38:09;97667.00;;;21.00;56.67
73085;BME280;62974;49.460;10.892;2023-05-20T12:40:37;97672.28;;;21.22;57.05
73085;BME280;62974;49.460;10.892;2023-05-20T12:43:04;97667.00;;;21.00;56.64
73085;BME280;62974;49.460;10.892;2023-05-20T12:45:33;97675.69;;;20.77;58.36
73085;BME280;62974;49.460;10.892;2023-05-20T12:48:01;97668.09;;;21.04;57.17
73085;BME280;62974;49.460;10.892;2023-05-20T12:50:29;97670.81;;;20.94;57.68
73085;BME280;62974;49.460;10.892;2023-05-20T12:52:56;97664.84;;;21.02;57.82
73085;BME280;62974;49.460;10.892;2023-05-20T12:55:24;97665.06;;;20.85;58.89
73085;BME280;62974;49.460;10.892;2023-05-20T12:57:54;97668.88;;;20.94;57.39